sensor_id;sensor_type;location;lat;lon;timestamp;P1;durP1;ratioP1;P2;durP2;ratioP2
64498;SDS011;51087;55.718;21.122;2023-09-12T00:01:28;102.13;;;29.55;;
64498;SDS011;51087;55.718;21.122;2023-09-12T00:03:57;218.68;;;30.08;;
64498;SDS011;51087;55.718;21.122;2023-09-12T00:06:23;240.30;;;30.02;;
64498;SDS011;51087;55.718;21.122;2023-09-12T00:08:48;124.13;;;31.83;;
64498;SDS011;51087;55.718;21.122;2023-09-12T00:11:14;126.70;;;30.30;;
64498;SDS011;51087;55.718;21.122;2023-09-12T00:13:40;224.55;;;30.27;;
64498;SDS011;51087;55.718;21.122;2023-09-12T00:16:06;239.98;;;29.98;;
64498;SDS011;51087;55.718;21.122;2023-09-12T00:18:32;193.02;;;30.85;;
64498;SDS011;51087;55.718;21.122;2023-09-12T00:20:59;137.20;;;29.23;;
64498;SDS011;51087;55.718;21.122;2023-09-12T00:23:25;114.35;;;28.98;;
64498;SDS011;51087;55.718;21.122;2023-09-12T00:25:51;122.78;;;28.65;;
64498;SDS011;51087;55.718;21.122;2023-09-12T00:28:17;104.18;;;24.95;;
64498;SDS011;51087;55.718;21.122;2023-09-12T00:30:43;156.98;;;25.70;;
64498;SDS011;51087;55.718;21.122;2023-09-12T00:33:08;126.57;;;20.70;;
64498;SDS011;51087;55.718;21.122;2023-09-12T00:35:34;118.63;;;21.95;;
64498;SDS011;51087;55.718;21.122;2023-09-12T00:37:59;63.50;;;24.23;;
64498;SDS011;51087;55.718;21.122;2023-09-12T00:40:25;68.70;;;25.20;;
64498;SDS011;51087;55.718;21.122;2023-09-12T00:42:50;80.50;;;26.80;;
64498;SDS011;51087;55.718;21.122;2023-09-12T00:45:25;74.63;;;26.23;;
64498;SDS011;51087;55.718;21.122;2023-09-12T00:48:00;168.63;;;28.42;;
64498;SDS011;51087;55.718;21.122;2023-09-12T00:50:27;93.00;;;28.27;;
64498;SDS011;51087;55.718;21.122;2023-09-12T00:52:54;116.28;;;27.08;;
64498;SDS011;51087;55.718;21.122;2023-09-12T00:55:21;111.32;;;27.17;;
64498;SDS011;51087;55.718;21.122;2023-09-12T00:57:46;125.70;;;28.88;;
64498;SDS011;51087;55.718;21.122;2023-09-12T01:00:13;132.90;;;27.13;;
64498;SDS011;51087;55.718;21.122;2023-09-12T01:02:39;156.70;;;26.52;;
64498;SDS011;51087;55.718;21.122;2023-09-12T01:05:06;154.90;;;28.55;;
64498;SDS011;51087;55.718;21.122;2023-09-12T01:07:34;175.73;;;28.88;;
64498;SDS011;51087;55.718;21.122;2023-09-12T01:10:01;109.47;;;24.65;;
64498;SDS011;51087;55.718;21.122;2023-09-12T01:12:27;91.45;;;20.23;;
64498;SDS011;51087;55.718;21.122;2023-09-12T01:14:52;122.60;;;16.65;;
64498;SDS011;51087;55.718;21.122;2023-09-12T01:17:18;114.30;;;18.27;;
64498;SDS011;51087;55.718;21.122;2023-09-12T01:19:43;90.75;;;16.58;;
64498;SDS011;51087;55.718;21.122;2023-09-12T01:27:32;107.70;;;17.63;;
64498;SDS011;51087;55.718;21.122;2023-09-12T01:30:04;115.70;;;17.05;;
64498;SDS011;51087;55.718;21.122;2023-09-12T01:32:31;112.47;;;17.35;;
64498;SDS011;51087;55.718;21.122;2023-09-12T01:34:57;62.90;;;18.90;;
64498;SDS011;51087;55.718;21.122;2023-09-12T01:37:23;74.55;;;18.15;;
64498;SDS011;51087;55.718;21.122;2023-09-12T01:39:48;57.17;;;14.57;;
64498;SDS011;51087;55.718;21.122;2023-09-12T01:42:18;54.85;;;15.52;;
64498;SDS011;51087;55.718;21.122;2023-09-12T01:44:45;76.22;;;15.88;;
64498;SDS011;51087;55.718;21.122;2023-09-12T01:47:14;73.57;;;14.38;;
64498;SDS011;51087;55.718;21.122;2023-09-12T01:49:42;47.55;;;14.55;;
64498;SDS011;51087;55.718;21.122;2023-09-12T01:52:10;48.88;;;13.38;;
64498;SDS011;51087;55.718;21.122;2023-09-12T01:54:36;35.28;;;14.57;;
64498;SDS011;51087;55.718;21.122;2023-09-12T01:57:02;34.72;;;13.70;;
64498;SDS011;51087;55.718;21.122;2023-09-12T01:59:29;42.60;;;12.07;;
64498;SDS011;51087;55.718;21.122;2023-09-12T02:01:54;37.08;;;13.35;;
64498;SDS011;51087;55.718;21.122;2023-09-12T02:04:20;25.83;;;12.30;;
64498;SDS011;51087;55.718;21.122;2023-09-12T02:06:45;48.40;;;10.73;;
64498;SDS011;51087;55.718;21.122;2023-09-12T02:09:11;40.60;;;10.15;;
64498;SDS011;51087;55.718;21.122;2023-09-12T02:11:36;27.98;;;9.93;;
64498;SDS011;51087;55.718;21.122;2023-09-12T02:14:02;41.95;;;9.13;;
64498;SDS011;51087;55.718;21.122;2023-09-12T02:16:28;19.27;;;8.95;;
64498;SDS011;51087;55.718;21.122;2023-09-12T02:18:54;19.30;;;8.77;;
64498;SDS011;51087;55.718;21.122;2023-09-12T02:21:19;14.85;;;8.50;;
64498;SDS011;51087;55.718;21.122;2023-09-12T02:23:45;15.63;;;8.65;;
64498;SDS011;51087;55.718;21.122;2023-09-12T02:26:10;12.68;;;8.02;;
64498;SDS011;51087;55.718;21.122;2023-09-12T02:28:35;16.77;;;9.32;;
64498;SDS011;51087;55.718;21.122;2023-09-12T02:31:01;14.25;;;8.20;;
64498;SDS011;51087;55.718;21.122;2023-09-12T02:33:26;12.73;;;8.02;;
64498;SDS011;51087;55.718;21.122;2023-09-12T02:35:52;14.55;;;8.07;;
64498;SDS011;51087;55.718;21.122;2023-09-12T02:38:19;11.07;;;7.55;;
64498;SDS011;51087;55.718;21.122;2023-09-12T02:40:45;12.07;;;7.43;;
64498;SDS011;51087;55.718;21.122;2023-09-12T02:43:10;10.15;;;7.63;;
64498;SDS011;51087;55.718;21.122;2023-09-12T02:45:35;15.65;;;8.20;;
64498;SDS011;51087;55.718;21.122;2023-09-12T02:48:11;13.85;;;7.95;;
64498;SDS011;51087;55.718;21.122;2023-09-12T02:50:37;13.75;;;8.15;;
64498;SDS011;51087;55.718;21.122;2023-09-12T02:53:03;14.30;;;7.82;;
64498;SDS011;51087;55.718;21.122;2023-09-12T02:55:33;15.05;;;7.68;;
64498;SDS011;51087;55.718;21.122;2023-09-12T02:57:58;16.20;;;7.53;;
64498;SDS011;51087;55.718;21.122;2023-09-12T03:00:24;18.92;;;7.47;;
64498;SDS011;51087;55.718;21.122;2023-09-12T03:02:49;22.10;;;8.20;;
64498;SDS011;51087;55.718;21.122;2023-09-12T03:05:14;23.30;;;8.35;;
64498;SDS011;51087;55.718;21.122;2023-09-12T03:07:40;23.20;;;8.63;;
64498;SDS011;51087;55.718;21.122;2023-09-12T03:10:05;17.67;;;7.68;;
64498;SDS011;51087;55.718;21.122;2023-09-12T03:12:31;14.88;;;7.40;;
64498;SDS011;51087;55.718;21.122;2023-09-12T03:14:56;20.83;;;7.50;;
64498;SDS011;51087;55.718;21.122;2023-09-12T03:17:22;21.77;;;7.97;;
64498;SDS011;51087;55.718;21.122;2023-09-12T03:19:47;23.73;;;8.60;;
64498;SDS011;51087;55.718;21.122;2023-09-12T03:22:13;15.70;;;7.65;;
64498;SDS011;51087;55.718;21.122;2023-09-12T03:24:38;22.67;;;7.95;;
64498;SDS011;51087;55.718;21.122;2023-09-12T03:27:11;24.42;;;8.20;;
64498;SDS011;51087;55.718;21.122;2023-09-12T03:29:37;18.23;;;8.20;;
64498;SDS011;51087;55.718;21.122;2023-09-12T03:32:03;22.63;;;8.90;;
64498;SDS011;51087;55.718;21.122;2023-09-12T03:34:29;22.27;;;9.10;;
64498;SDS011;51087;55.718;21.122;2023-09-12T03:36:54;22.35;;;8.70;;
64498;SDS011;51087;55.718;21.122;2023-09-12T03:39:20;32.10;;;9.80;;
64498;SDS011;51087;55.718;21.122;2023-09-12T03:41:45;27.08;;;10.20;;
64498;SDS011;51087;55.718;21.122;2023-09-12T03:44:11;38.60;;;10.88;;
64498;SDS011;51087;55.718;21.122;2023-09-12T03:46:36;21.48;;;9.98;;
64498;SDS011;51087;55.718;21.122;2023-09-12T03:49:03;31.60;;;10.77;;
64498;SDS011;51087;55.718;21.122;2023-09-12T03:51:28;37.00;;;9.85;;
64498;SDS011;51087;55.718;21.122;2023-09-12T03:53:55;20.52;;;10.13;;
64498;SDS011;51087;55.718;21.122;2023-09-12T03:56:24;21.63;;;10.38;;
64498;SDS011;51087;55.718;21.122;2023-09-12T03:58:50;24.48;;;10.73;;
64498;SDS011;51087;55.718;21.122;2023-09-12T04:01:16;25.33;;;11.13;;
64498;SDS011;51087;55.718;21.122;2023-09-12T04:03:41;56.40;;;11.20;;
64498;SDS011;51087;55.718;21.122;2023-09-12T04:06:14;28.63;;;11.50;;
64498;SDS011;51087;55.718;21.122;2023-09-12T04:08:40;53.45;;;11.80;;
64498;SDS011;51087;55.718;21.122;2023-09-12T04:11:05;25.73;;;11.60;;
64498;SDS011;51087;55.718;21.122;2023-09-12T04:13:31;31.77;;;12.45;;
64498;SDS011;51087;55.718;21.122;2023-09-12T04:15:56;32.70;;;13.43;;
64498;SDS011;51087;55.718;21.122;2023-09-12T04:18:31;30.45;;;14.18;;
64498;SDS011;51087;55.718;21.122;2023-09-12T04:21:03;25.33;;;13.80;;
64498;SDS011;51087;55.718;21.122;2023-09-12T04:23:32;37.72;;;14.18;;
64498;SDS011;51087;55.718;21.122;2023-09-12T04:25:57;29.30;;;15.23;;
64498;SDS011;51087;55.718;21.122;2023-09-12T04:28:28;29.88;;;14.90;;
64498;SDS011;51087;55.718;21.122;2023-09-12T04:31:00;66.10;;;14.75;;
64498;SDS011;51087;55.718;21.122;2023-09-12T04:33:26;32.50;;;13.93;;
64498;SDS011;51087;55.718;21.122;2023-09-12T04:35:51;35.17;;;14.48;;
64498;SDS011;51087;55.718;21.122;2023-09-12T04:38:17;40.38;;;14.00;;
64498;SDS011;51087;55.718;21.122;2023-09-12T04:40:42;29.92;;;14.82;;
64498;SDS011;51087;55.718;21.122;2023-09-12T04:43:07;30.20;;;14.38;;
64498;SDS011;51087;55.718;21.122;2023-09-12T04:45:33;39.03;;;13.93;;
64498;SDS011;51087;55.718;21.122;2023-09-12T04:47:59;28.88;;;14.23;;
64498;SDS011;51087;55.718;21.122;2023-09-12T04:50:24;51.92;;;14.38;;
64498;SDS011;51087;55.718;21.122;2023-09-12T04:52:50;41.05;;;14.02;;
64498;SDS011;51087;55.718;21.122;2023-09-12T04:55:16;29.20;;;14.82;;
64498;SDS011;51087;55.718;21.122;2023-09-12T04:57:41;26.15;;;14.90;;
64498;SDS011;51087;55.718;21.122;2023-09-12T05:00:06;30.35;;;15.35;;
64498;SDS011;51087;55.718;21.122;2023-09-12T05:02:33;35.72;;;15.68;;
64498;SDS011;51087;55.718;21.122;2023-09-12T05:04:58;23.98;;;15.10;;
64498;SDS011;51087;55.718;21.122;2023-09-12T05:07:23;35.05;;;16.00;;
64498;SDS011;51087;55.718;21.122;2023-09-12T05:09:50;37.58;;;15.95;;
64498;SDS011;51087;55.718;21.122;2023-09-12T05:12:16;41.70;;;17.40;;
64498;SDS011;51087;55.718;21.122;2023-09-12T05:14:41;35.28;;;17.52;;
64498;SDS011;51087;55.718;21.122;2023-09-12T05:17:07;36.88;;;18.52;;
64498;SDS011;51087;55.718;21.122;2023-09-12T05:19:32;44.75;;;18.95;;
64498;SDS011;51087;55.718;21.122;2023-09-12T05:21:58;38.63;;;19.33;;
64498;SDS011;51087;55.718;21.122;2023-09-12T05:24:23;45.90;;;19.13;;
64498;SDS011;51087;55.718;21.122;2023-09-12T05:26:49;39.75;;;19.80;;
64498;SDS011;51087;55.718;21.122;2023-09-12T05:29:14;47.22;;;20.05;;
64498;SDS011;51087;55.718;21.122;2023-09-12T05:31:40;37.88;;;18.25;;
64498;SDS011;51087;55.718;21.122;2023-09-12T05:34:05;35.78;;;18.30;;
64498;SDS011;51087;55.718;21.122;2023-09-12T05:36:31;70.75;;;19.55;;
64498;SDS011;51087;55.718;21.122;2023-09-12T05:38:56;45.03;;;19.70;;
64498;SDS011;51087;55.718;21.122;2023-09-12T05:41:21;39.65;;;20.25;;
64498;SDS011;51087;55.718;21.122;2023-09-12T05:43:47;48.75;;;20.52;;
64498;SDS011;51087;55.718;21.122;2023-09-12T05:46:12;44.78;;;19.63;;
64498;SDS011;51087;55.718;21.122;2023-09-12T05:48:38;45.80;;;21.13;;
64498;SDS011;51087;55.718;21.122;2023-09-12T05:51:03;40.85;;;20.95;;
64498;SDS011;51087;55.718;21.122;2023-09-12T05:53:28;44.58;;;21.70;;
64498;SDS011;51087;55.718;21.122;2023-09-12T05:55:55;62.58;;;22.73;;
64498;SDS011;51087;55.718;21.122;2023-09-12T05:58:21;52.08;;;21.80;;
64498;SDS011;51087;55.718;21.122;2023-09-12T06:00:46;52.47;;;22.20;;
64498;SDS011;51087;55.718;21.122;2023-09-12T06:03:14;51.63;;;24.00;;
64498;SDS011;51087;55.718;21.122;2023-09-12T06:05:39;59.28;;;24.77;;
64498;SDS011;51087;55.718;21.122;2023-09-12T06:08:05;56.53;;;26.08;;
64498;SDS011;51087;55.718;21.122;2023-09-12T06:10:30;58.70;;;25.83;;
64498;SDS011;51087;55.718;21.122;2023-09-12T06:12:56;51.67;;;25.50;;
64498;SDS011;51087;55.718;21.122;2023-09-12T06:15:21;49.05;;;24.05;;
64498;SDS011;51087;55.718;21.122;2023-09-12T06:17:47;47.67;;;23.88;;
64498;SDS011;51087;55.718;21.122;2023-09-12T06:20:12;51.60;;;24.48;;
64498;SDS011;51087;55.718;21.122;2023-09-12T06:22:37;53.13;;;24.52;;
64498;SDS011;51087;55.718;21.122;2023-09-12T06:25:03;47.90;;;23.98;;
64498;SDS011;51087;55.718;21.122;2023-09-12T06:27:28;54.72;;;24.85;;
64498;SDS011;51087;55.718;21.122;2023-09-12T06:29:55;51.42;;;24.48;;
64498;SDS011;51087;55.718;21.122;2023-09-12T06:32:21;51.10;;;26.10;;
64498;SDS011;51087;55.718;21.122;2023-09-12T06:34:46;53.67;;;24.05;;
64498;SDS011;51087;55.718;21.122;2023-09-12T06:37:12;46.03;;;23.63;;
64498;SDS011;51087;55.718;21.122;2023-09-12T06:39:38;46.97;;;23.05;;
64498;SDS011;51087;55.718;21.122;2023-09-12T06:42:05;43.88;;;22.85;;
64498;SDS011;51087;55.718;21.122;2023-09-12T06:44:31;38.25;;;22.45;;
64498;SDS011;51087;55.718;21.122;2023-09-12T06:46:56;40.15;;;22.70;;
64498;SDS011;51087;55.718;21.122;2023-09-12T06:49:25;46.47;;;24.23;;
64498;SDS011;51087;55.718;21.122;2023-09-12T06:51:51;51.13;;;27.05;;
64498;SDS011;51087;55.718;21.122;2023-09-12T06:54:18;49.45;;;26.23;;
64498;SDS011;51087;55.718;21.122;2023-09-12T06:56:43;50.72;;;28.23;;
64498;SDS011;51087;55.718;21.122;2023-09-12T06:59:08;56.83;;;29.98;;
64498;SDS011;51087;55.718;21.122;2023-09-12T07:01:34;53.78;;;30.13;;
64498;SDS011;51087;55.718;21.122;2023-09-12T07:04:00;46.78;;;28.38;;
64498;SDS011;51087;55.718;21.122;2023-09-12T07:06:25;48.17;;;29.33;;
64498;SDS011;51087;55.718;21.122;2023-09-12T07:08:50;55.63;;;31.27;;
64498;SDS011;51087;55.718;21.122;2023-09-12T07:11:19;63.22;;;33.20;;
64498;SDS011;51087;55.718;21.122;2023-09-12T07:13:45;55.85;;;32.22;;
64498;SDS011;51087;55.718;21.122;2023-09-12T07:16:11;64.03;;;33.63;;
64498;SDS011;51087;55.718;21.122;2023-09-12T07:18:37;60.20;;;34.10;;
64498;SDS011;51087;55.718;21.122;2023-09-12T07:21:03;56.05;;;34.40;;
64498;SDS011;51087;55.718;21.122;2023-09-12T07:23:29;52.78;;;32.72;;
64498;SDS011;51087;55.718;21.122;2023-09-12T07:25:57;55.55;;;31.58;;
64498;SDS011;51087;55.718;21.122;2023-09-12T07:28:23;52.65;;;30.83;;
64498;SDS011;51087;55.718;21.122;2023-09-12T07:30:52;45.80;;;28.63;;
64498;SDS011;51087;55.718;21.122;2023-09-12T07:33:19;45.00;;;28.30;;
64498;SDS011;51087;55.718;21.122;2023-09-12T07:35:45;41.80;;;27.13;;
64498;SDS011;51087;55.718;21.122;2023-09-12T07:38:12;41.60;;;25.70;;
64498;SDS011;51087;55.718;21.122;2023-09-12T07:40:37;40.40;;;25.48;;
64498;SDS011;51087;55.718;21.122;2023-09-12T07:43:03;36.78;;;25.20;;
64498;SDS011;51087;55.718;21.122;2023-09-12T07:45:28;42.80;;;25.23;;
64498;SDS011;51087;55.718;21.122;2023-09-12T07:47:56;40.20;;;23.60;;
64498;SDS011;51087;55.718;21.122;2023-09-12T07:50:21;37.25;;;23.08;;
64498;SDS011;51087;55.718;21.122;2023-09-12T07:52:46;37.45;;;24.05;;
64498;SDS011;51087;55.718;21.122;2023-09-12T07:55:12;40.42;;;22.92;;
64498;SDS011;51087;55.718;21.122;2023-09-12T07:57:37;34.22;;;22.73;;
64498;SDS011;51087;55.718;21.122;2023-09-12T08:00:04;31.23;;;21.83;;
64498;SDS011;51087;55.718;21.122;2023-09-12T08:02:35;27.98;;;20.92;;
64498;SDS011;51087;55.718;21.122;2023-09-12T08:05:00;34.88;;;21.98;;
64498;SDS011;51087;55.718;21.122;2023-09-12T08:07:26;37.95;;;22.80;;
64498;SDS011;51087;55.718;21.122;2023-09-12T08:09:55;35.35;;;22.70;;
64498;SDS011;51087;55.718;21.122;2023-09-12T08:12:25;34.08;;;20.80;;
64498;SDS011;51087;55.718;21.122;2023-09-12T08:14:52;36.90;;;22.85;;
64498;SDS011;51087;55.718;21.122;2023-09-12T08:17:18;33.38;;;21.02;;
64498;SDS011;51087;55.718;21.122;2023-09-12T08:19:44;34.25;;;20.90;;
64498;SDS011;51087;55.718;21.122;2023-09-12T08:22:11;32.47;;;19.83;;
64498;SDS011;51087;55.718;21.122;2023-09-12T08:24:37;27.48;;;19.77;;
64498;SDS011;51087;55.718;21.122;2023-09-12T08:27:04;29.02;;;18.92;;
64498;SDS011;51087;55.718;21.122;2023-09-12T08:29:30;24.05;;;18.55;;
64498;SDS011;51087;55.718;21.122;2023-09-12T08:31:57;28.40;;;18.30;;
64498;SDS011;51087;55.718;21.122;2023-09-12T08:34:23;31.50;;;19.85;;
64498;SDS011;51087;55.718;21.122;2023-09-12T08:36:48;34.35;;;20.20;;
64498;SDS011;51087;55.718;21.122;2023-09-12T08:39:14;34.47;;;19.15;;
64498;SDS011;51087;55.718;21.122;2023-09-12T08:41:44;32.28;;;18.80;;
64498;SDS011;51087;55.718;21.122;2023-09-12T08:44:12;22.75;;;15.65;;
64498;SDS011;51087;55.718;21.122;2023-09-12T08:46:41;18.17;;;14.27;;
64498;SDS011;51087;55.718;21.122;2023-09-12T08:49:07;26.85;;;13.65;;
64498;SDS011;51087;55.718;21.122;2023-09-12T08:51:35;17.77;;;13.88;;
64498;SDS011;51087;55.718;21.122;2023-09-12T08:54:01;19.05;;;13.32;;
64498;SDS011;51087;55.718;21.122;2023-09-12T08:56:29;20.40;;;14.10;;
64498;SDS011;51087;55.718;21.122;2023-09-12T08:58:56;20.27;;;13.82;;
64498;SDS011;51087;55.718;21.122;2023-09-12T09:01:22;21.35;;;12.82;;
64498;SDS011;51087;55.718;21.122;2023-09-12T09:03:48;17.02;;;12.32;;
64498;SDS011;51087;55.718;21.122;2023-09-12T09:06:13;18.08;;;12.15;;
64498;SDS011;51087;55.718;21.122;2023-09-12T09:08:41;16.88;;;11.93;;
64498;SDS011;51087;55.718;21.122;2023-09-12T09:11:07;15.35;;;11.18;;
64498;SDS011;51087;55.718;21.122;2023-09-12T09:13:33;16.67;;;11.85;;
64498;SDS011;51087;55.718;21.122;2023-09-12T09:16:17;15.85;;;11.75;;
64498;SDS011;51087;55.718;21.122;2023-09-12T09:18:52;13.25;;;10.57;;
64498;SDS011;51087;55.718;21.122;2023-09-12T09:21:25;14.38;;;10.63;;
64498;SDS011;51087;55.718;21.122;2023-09-12T09:23:53;15.13;;;10.35;;
64498;SDS011;51087;55.718;21.122;2023-09-12T09:26:19;14.48;;;10.52;;
64498;SDS011;51087;55.718;21.122;2023-09-12T09:28:45;15.15;;;10.73;;
64498;SDS011;51087;55.718;21.122;2023-09-12T09:31:11;12.93;;;10.40;;
64498;SDS011;51087;55.718;21.122;2023-09-12T09:33:38;14.20;;;9.93;;
64498;SDS011;51087;55.718;21.122;2023-09-12T09:36:05;11.32;;;9.60;;
64498;SDS011;51087;55.718;21.122;2023-09-12T09:38:33;13.07;;;10.00;;
64498;SDS011;51087;55.718;21.122;2023-09-12T09:40:59;14.75;;;9.95;;
64498;SDS011;51087;55.718;21.122;2023-09-12T09:43:25;13.85;;;8.88;;
64498;SDS011;51087;55.718;21.122;2023-09-12T09:45:50;17.98;;;8.77;;
64498;SDS011;51087;55.718;21.122;2023-09-12T09:48:23;11.07;;;8.75;;
64498;SDS011;51087;55.718;21.122;2023-09-12T09:50:50;10.50;;;9.25;;
64498;SDS011;51087;55.718;21.122;2023-09-12T09:53:17;10.05;;;8.38;;
64498;SDS011;51087;55.718;21.122;2023-09-12T09:58:16;11.18;;;8.40;;
64498;SDS011;51087;55.718;21.122;2023-09-12T10:00:42;11.18;;;8.45;;
64498;SDS011;51087;55.718;21.122;2023-09-12T10:03:08;12.05;;;7.72;;
64498;SDS011;51087;55.718;21.122;2023-09-12T10:05:36;13.82;;;8.27;;
64498;SDS011;51087;55.718;21.122;2023-09-12T10:08:03;12.95;;;8.55;;
64498;SDS011;51087;55.718;21.122;2023-09-12T10:10:31;11.55;;;7.75;;
64498;SDS011;51087;55.718;21.122;2023-09-12T10:12:59;9.43;;;7.88;;
64498;SDS011;51087;55.718;21.122;2023-09-12T10:15:28;11.77;;;8.50;;
64498;SDS011;51087;55.718;21.122;2023-09-12T10:17:56;16.75;;;8.70;;
64498;SDS011;51087;55.718;21.122;2023-09-12T10:20:58;8.45;;;7.55;;
64498;SDS011;51087;55.718;21.122;2023-09-12T10:25:42;11.52;;;7.93;;
64498;SDS011;51087;55.718;21.122;2023-09-12T10:28:18;11.10;;;6.93;;
64498;SDS011;51087;55.718;21.122;2023-09-12T10:30:44;10.68;;;7.13;;
64498;SDS011;51087;55.718;21.122;2023-09-12T10:33:10;14.65;;;8.02;;
64498;SDS011;51087;55.718;21.122;2023-09-12T10:35:36;8.27;;;6.90;;
64498;SDS011;51087;55.718;21.122;2023-09-12T10:38:03;11.77;;;6.85;;
64498;SDS011;51087;55.718;21.122;2023-09-12T10:40:31;11.43;;;6.68;;
64498;SDS011;51087;55.718;21.122;2023-09-12T10:42:57;7.53;;;6.63;;
64498;SDS011;51087;55.718;21.122;2023-09-12T10:45:24;8.27;;;6.30;;
64498;SDS011;51087;55.718;21.122;2023-09-12T10:47:51;10.88;;;6.53;;
64498;SDS011;51087;55.718;21.122;2023-09-12T10:50:17;7.25;;;6.18;;
64498;SDS011;51087;55.718;21.122;2023-09-12T10:52:44;8.38;;;5.80;;
64498;SDS011;51087;55.718;21.122;2023-09-12T10:55:15;11.65;;;6.00;;
64498;SDS011;51087;55.718;21.122;2023-09-12T11:00:31;9.57;;;6.05;;
64498;SDS011;51087;55.718;21.122;2023-09-12T11:02:58;6.63;;;5.35;;
64498;SDS011;51087;55.718;21.122;2023-09-12T11:07:57;7.03;;;5.50;;
64498;SDS011;51087;55.718;21.122;2023-09-12T11:10:23;7.97;;;5.80;;
64498;SDS011;51087;55.718;21.122;2023-09-12T11:12:53;7.53;;;5.70;;
64498;SDS011;51087;55.718;21.122;2023-09-12T11:15:21;7.95;;;5.38;;
64498;SDS011;51087;55.718;21.122;2023-09-12T11:17:49;6.30;;;5.60;;
64498;SDS011;51087;55.718;21.122;2023-09-12T11:20:24;10.43;;;5.60;;
64498;SDS011;51087;55.718;21.122;2023-09-12T11:22:49;7.65;;;5.47;;
64498;SDS011;51087;55.718;21.122;2023-09-12T11:30:23;8.82;;;5.80;;
64498;SDS011;51087;55.718;21.122;2023-09-12T11:32:50;6.63;;;5.30;;
64498;SDS011;51087;55.718;21.122;2023-09-12T11:35:25;7.70;;;5.68;;
64498;SDS011;51087;55.718;21.122;2023-09-12T11:37:55;8.50;;;6.30;;
64498;SDS011;51087;55.718;21.122;2023-09-12T11:40:32;8.30;;;6.15;;
64498;SDS011;51087;55.718;21.122;2023-09-12T11:43:08;9.75;;;6.32;;
64498;SDS011;51087;55.718;21.122;2023-09-12T11:45:44;10.20;;;6.57;;
64498;SDS011;51087;55.718;21.122;2023-09-12T11:48:11;8.07;;;6.05;;
64498;SDS011;51087;55.718;21.122;2023-09-12T11:50:37;8.98;;;5.88;;
64498;SDS011;51087;55.718;21.122;2023-09-12T11:53:05;8.32;;;6.00;;
64498;SDS011;51087;55.718;21.122;2023-09-12T11:55:36;10.15;;;5.90;;
64498;SDS011;51087;55.718;21.122;2023-09-12T11:58:08;9.23;;;5.80;;
64498;SDS011;51087;55.718;21.122;2023-09-12T12:00:33;8.88;;;5.65;;
64498;SDS011;51087;55.718;21.122;2023-09-12T12:02:59;8.38;;;5.68;;
64498;SDS011;51087;55.718;21.122;2023-09-12T12:05:24;7.90;;;5.60;;
64498;SDS011;51087;55.718;21.122;2023-09-12T12:07:50;8.57;;;5.40;;
64498;SDS011;51087;55.718;21.122;2023-09-12T12:10:16;8.05;;;5.75;;
64498;SDS011;51087;55.718;21.122;2023-09-12T12:12:45;8.05;;;5.68;;
64498;SDS011;51087;55.718;21.122;2023-09-12T12:15:11;11.93;;;5.50;;
64498;SDS011;51087;55.718;21.122;2023-09-12T12:17:37;8.68;;;5.60;;
64498;SDS011;51087;55.718;21.122;2023-09-12T12:20:06;6.35;;;5.75;;
64498;SDS011;51087;55.718;21.122;2023-09-12T12:22:35;6.55;;;5.60;;
64498;SDS011;51087;55.718;21.122;2023-09-12T12:25:08;8.18;;;5.72;;
64498;SDS011;51087;55.718;21.122;2023-09-12T12:27:41;9.00;;;6.05;;
64498;SDS011;51087;55.718;21.122;2023-09-12T12:30:10;9.10;;;6.03;;
64498;SDS011;51087;55.718;21.122;2023-09-12T12:32:43;9.93;;;5.90;;
64498;SDS011;51087;55.718;21.122;2023-09-12T12:35:20;8.68;;;6.00;;
64498;SDS011;51087;55.718;21.122;2023-09-12T12:37:50;10.02;;;6.40;;
64498;SDS011;51087;55.718;21.122;2023-09-12T12:40:16;9.25;;;6.43;;
64498;SDS011;51087;55.718;21.122;2023-09-12T12:42:44;8.88;;;6.40;;
64498;SDS011;51087;55.718;21.122;2023-09-12T12:47:39;8.65;;;6.88;;
64498;SDS011;51087;55.718;21.122;2023-09-12T12:50:23;11.25;;;6.20;;
64498;SDS011;51087;55.718;21.122;2023-09-12T12:52:48;8.73;;;6.50;;
64498;SDS011;51087;55.718;21.122;2023-09-12T12:55:14;8.88;;;6.50;;
64498;SDS011;51087;55.718;21.122;2023-09-12T12:57:42;7.32;;;6.50;;
64498;SDS011;51087;55.718;21.122;2023-09-12T13:00:08;8.50;;;6.18;;
64498;SDS011;51087;55.718;21.122;2023-09-12T13:02:36;10.80;;;6.55;;
64498;SDS011;51087;55.718;21.122;2023-09-12T13:05:02;10.60;;;7.03;;
64498;SDS011;51087;55.718;21.122;2023-09-12T13:07:28;11.05;;;6.97;;
64498;SDS011;51087;55.718;21.122;2023-09-12T13:09:53;7.63;;;6.60;;
64498;SDS011;51087;55.718;21.122;2023-09-12T13:12:18;10.15;;;6.78;;
64498;SDS011;51087;55.718;21.122;2023-09-12T13:14:45;11.38;;;7.07;;
64498;SDS011;51087;55.718;21.122;2023-09-12T13:17:11;11.50;;;7.10;;
64498;SDS011;51087;55.718;21.122;2023-09-12T13:19:36;12.18;;;7.32;;
64498;SDS011;51087;55.718;21.122;2023-09-12T13:22:02;7.65;;;6.50;;
64498;SDS011;51087;55.718;21.122;2023-09-12T13:24:28;10.88;;;6.68;;
64498;SDS011;51087;55.718;21.122;2023-09-12T13:26:53;9.35;;;6.70;;
64498;SDS011;51087;55.718;21.122;2023-09-12T13:29:19;7.63;;;6.68;;
64498;SDS011;51087;55.718;21.122;2023-09-12T13:31:44;9.10;;;6.85;;
64498;SDS011;51087;55.718;21.122;2023-09-12T13:34:10;11.18;;;6.53;;
64498;SDS011;51087;55.718;21.122;2023-09-12T13:36:36;10.90;;;6.60;;
64498;SDS011;51087;55.718;21.122;2023-09-12T13:39:01;9.90;;;6.10;;
64498;SDS011;51087;55.718;21.122;2023-09-12T13:41:27;7.55;;;6.38;;
64498;SDS011;51087;55.718;21.122;2023-09-12T13:43:53;12.95;;;6.32;;
64498;SDS011;51087;55.718;21.122;2023-09-12T13:46:18;8.73;;;6.45;;
64498;SDS011;51087;55.718;21.122;2023-09-12T13:48:43;7.82;;;6.13;;
64498;SDS011;51087;55.718;21.122;2023-09-12T13:51:09;7.45;;;6.35;;
64498;SDS011;51087;55.718;21.122;2023-09-12T13:53:34;9.38;;;6.20;;
64498;SDS011;51087;55.718;21.122;2023-09-12T13:56:00;12.00;;;6.55;;
64498;SDS011;51087;55.718;21.122;2023-09-12T13:58:26;12.15;;;6.72;;
64498;SDS011;51087;55.718;21.122;2023-09-12T14:00:52;10.55;;;6.50;;
64498;SDS011;51087;55.718;21.122;2023-09-12T14:03:17;9.68;;;6.53;;
64498;SDS011;51087;55.718;21.122;2023-09-12T14:05:43;11.48;;;6.68;;
64498;SDS011;51087;55.718;21.122;2023-09-12T14:08:08;9.00;;;6.60;;
64498;SDS011;51087;55.718;21.122;2023-09-12T14:10:34;9.55;;;6.68;;
64498;SDS011;51087;55.718;21.122;2023-09-12T14:13:00;8.95;;;6.70;;
64498;SDS011;51087;55.718;21.122;2023-09-12T14:15:26;9.48;;;6.68;;
64498;SDS011;51087;55.718;21.122;2023-09-12T14:17:51;16.80;;;6.93;;
64498;SDS011;51087;55.718;21.122;2023-09-12T14:20:17;10.70;;;6.80;;
64498;SDS011;51087;55.718;21.122;2023-09-12T14:22:43;11.35;;;7.03;;
64498;SDS011;51087;55.718;21.122;2023-09-12T14:25:09;15.27;;;6.88;;
64498;SDS011;51087;55.718;21.122;2023-09-12T14:27:40;7.63;;;6.00;;
64498;SDS011;51087;55.718;21.122;2023-09-12T14:30:09;7.60;;;6.72;;
64498;SDS011;51087;55.718;21.122;2023-09-12T14:32:36;10.00;;;6.50;;
64498;SDS011;51087;55.718;21.122;2023-09-12T14:35:02;12.23;;;6.75;;
64498;SDS011;51087;55.718;21.122;2023-09-12T14:37:28;10.23;;;7.70;;